Time;durP1;ratioP1;P1;durP2;ratioP2;P2;SDS_P1;SDS_P2;PMS_P1;PMS_P2;Temp;Humidity;BMP_temperature;BMP_pressure;BME280_temperature;BME280_humidity;BME280_pressure;Samples;Min_cycle;Max_cycle;Signal;HPM_P1;HPM_P2
2023/07/13 00:00:47;;;;;;;0.00;0.00;;;;;;;20.49;60.70;101418.41;5017849;28;20034;-77
2023/07/13 00:03:13;;;;;;;0.00;0.00;;;;;;;20.52;60.37;101423.59;5014940;28;20049;-78
2023/07/13 00:05:41;;;;;;;0.03;0.03;;;;;;;20.50;60.56;101420.13;5015272;28;20482;-78
2023/07/13 00:08:08;;;;;;;2.53;0.65;;;;;;;20.47;60.94;101425.66;5013559;28;20041;-78
2023/07/13 00:10:38;;;;;;;0.25;0.25;;;;;;;20.41;60.79;101421.50;5021399;28;20048;-78
2023/07/13 00:13:04;;;;;;;1.45;1.38;;;;;;;20.36;60.64;101424.41;5022280;28;20026;-78
2023/07/13 00:15:31;;;;;;;0.00;0.00;;;;;;;20.37;60.23;101419.88;5023070;28;20525;-78
2023/07/13 00:17:57;;;;;;;0.57;0.57;;;;;;;20.24;61.45;101419.66;5026004;28;20037;-77
2023/07/13 00:20:25;;;;;;;0.13;0.13;;;;;;;20.24;61.51;101419.66;5026930;28;20040;-77
2023/07/13 00:22:53;;;;;;;0.82;0.82;;;;;;;20.23;61.22;101407.16;5020759;28;20117;-77
2023/07/13 00:25:21;;;;;;;0.05;0.05;;;;;;;20.21;61.38;101414.44;5011631;28;20038;-77
2023/07/13 00:27:48;;;;;;;0.00;0.00;;;;;;;20.23;60.92;101415.22;5013048;28;20037;-77
2023/07/13 00:30:15;;;;;;;0.10;0.10;;;;;;;20.25;60.56;101416.03;5012335;28;20034;-77
2023/07/13 00:32:41;;;;;;;0.00;0.00;;;;;;;20.26;61.20;101423.16;5013216;28;20395;-77
2023/07/13 00:35:08;;;;;;;0.22;0.22;;;;;;;20.27;61.26;101416.81;5012426;28;20453;-77
2023/07/13 00:37:35;;;;;;;0.15;0.15;;;;;;;20.24;61.35;101416.09;5014706;28;20972;-77
2023/07/13 00:40:04;;;;;;;0.00;0.00;;;;;;;20.26;61.28;101416.88;5012510;28;20029;-77
2023/07/13 00:42:30;;;;;;;0.03;0.03;;;;;;;20.24;61.06;101424.16;5012550;28;20033;-77
2023/07/13 00:47:49;;;;;;;0.00;0.00;;;;;;;20.39;60.70;101417.09;5089395;27;20393;-78
2023/07/13 00:50:18;;;;;;;0.10;0.10;;;;;;;20.40;60.57;101424.25;5089815;28;20028;-78
2023/07/13 00:52:47;;;;;;;0.10;0.10;;;;;;;20.40;60.32;101422.44;5076657;28;20407;-77
2023/07/13 00:55:15;;;;;;;0.10;0.10;;;;;;;20.44;60.13;101420.47;5065571;28;20025;-77
2023/07/13 01:00:22;;;;;;;2.90;1.20;;;;;;;20.40;59.97;101426.94;5442477;22;20062;-81
2023/07/13 01:02:52;;;;;;;0.05;0.05;;;;;;;20.37;60.44;101425.28;4982160;28;20093;-81
2023/07/13 01:05:21;;;;;;;1.38;1.35;;;;;;;20.34;59.99;101429.00;4974477;28;20023;-81
2023/07/13 01:07:50;;;;;;;0.00;0.00;;;;;;;20.26;60.88;101423.16;4971836;28;20031;-82
2023/07/13 01:10:38;;;;;;;0.00;0.00;;;;;;;20.23;60.69;101428.69;4975257;28;20090;-82
2023/07/13 01:13:06;;;;;;;0.10;0.10;;;;;;;20.17;60.70;101434.38;4978170;28;20505;-82
2023/07/13 01:15:43;;;;;;;0.32;0.10;;;;;;;20.13;61.65;101439.03;4977677;28;20035;-82
2023/07/13 01:18:18;;;;;;;0.00;0.00;;;;;;;20.03;62.10;101435.09;4984077;28;20030;-82
2023/07/13 01:20:53;;;;;;;0.43;0.43;;;;;;;19.98;62.54;101432.63;4976581;28;20055;-82
2023/07/13 01:23:24;;;;;;;0.00;0.00;;;;;;;19.87;63.10;101441.22;4977059;28;20034;-80
2023/07/13 01:26:08;;;;;;;0.05;0.05;;;;;;;19.94;62.38;101440.91;4988839;28;20042;-81
2023/07/13 01:28:36;;;;;;;0.00;0.00;;;;;;;19.82;63.21;101439.69;4981532;28;20055;-82
2023/07/13 01:31:03;;;;;;;0.10;0.10;;;;;;;19.76;63.65;101435.47;4979772;28;20061;-82
2023/07/13 01:33:46;;;;;;;0.00;0.00;;;;;;;19.83;63.20;101436.09;4976515;28;20134;-82
2023/07/13 01:36:13;;;;;;;0.00;0.00;;;;;;;19.70;63.75;101442.03;4975099;28;20062;-82
2023/07/13 01:38:39;;;;;;;0.10;0.10;;;;;;;19.66;63.58;101456.53;4973661;28;20119;-81
2023/07/13 01:41:12;;;;;;;0.03;0.03;;;;;;;19.55;64.15;101456.19;4974620;28;20067;-81
2023/07/13 01:43:38;;;;;;;;;;;;;;;19.63;63.10;101453.16;4975224;28;20109;-81
2023/07/13 01:46:04;;;;;;;0.10;0.10;;;;;;;19.46;63.06;101449.44;4976344;28;19953;-81
2023/07/13 01:48:43;;;;;;;0.00;0.00;;;;;;;19.42;63.71;101457.75;4975629;28;20026;-81
2023/07/13 01:51:09;;;;;;;0.10;0.10;;;;;;;19.34;63.35;101461.66;4968279;28;20086;-81
2023/07/13 01:53:36;;;;;;;0.00;0.00;;;;;;;19.30;63.07;101459.19;4975654;28;20039;-81
2023/07/13 01:56:02;;;;;;;0.10;0.10;;;;;;;19.24;63.84;101471.13;4976924;28;20035;-81
2023/07/13 01:58:28;;;;;;;0.00;0.00;;;;;;;19.23;63.36;101469.38;4965486;28;20027;-81
2023/07/13 02:00:55;;;;;;;0.00;0.00;;;;;;;19.25;63.45;101470.13;4964979;29;20032;-81
2023/07/13 02:03:21;;;;;;;0.10;0.10;;;;;;;19.28;63.52;101470.00;4958750;29;20047;-81
2023/07/13 02:05:47;;;;;;;0.10;0.10;;;;;;;19.23;64.74;101469.38;4955051;28;20035;-80
2023/07/13 02:08:13;;;;;;;0.10;0.10;;;;;;;19.27;64.75;101472.78;4956762;28;20027;-81
2023/07/13 02:10:40;;;;;;;0.13;0.13;;;;;;;19.32;64.70;101470.75;4956562;28;20042;-80
2023/07/13 02:13:07;;;;;;;0.10;0.10;;;;;;;19.38;64.06;101471.31;4956114;28;20035;-81
2023/07/13 02:15:33;;;;;;;0.00;0.00;;;;;;;19.39;64.00;101470.38;4957761;28;20037;-80
2023/07/13 02:17:59;;;;;;;0.00;0.00;;;;;;;19.39;64.12;101467.69;4955090;28;20407;-81
2023/07/13 02:20:26;;;;;;;0.00;0.00;;;;;;;19.35;64.03;101467.91;4957000;28;20031;-81
2023/07/13 02:22:52;;;;;;;0.00;0.00;;;;;;;19.33;63.66;101470.66;4955382;28;20098;-81
2023/07/13 02:25:19;;;;;;;0.00;0.00;;;;;;;19.26;64.33;101462.97;4959343;28;20078;-81
2023/07/13 02:27:45;;;;;;;0.28;0.22;;;;;;;19.26;64.37;101462.97;4948794;28;20046;-81
2023/07/13 02:30:14;;;;;;;0.00;0.00;;;;;;;19.21;64.08;101460.50;4956197;28;20022;-81
2023/07/13 02:32:40;;;;;;;0.08;0.08;;;;;;;19.15;64.43;101471.53;4955289;28;20490;-81
2023/07/13 02:35:06;;;;;;;0.00;0.00;;;;;;;19.14;64.02;101469.78;4955087;28;20031;-81
2023/07/13 02:37:32;;;;;;;0.20;0.20;;;;;;;19.11;64.23;101469.94;4958493;28;20031;-80
2023/07/13 02:39:59;;;;;;;0.10;0.10;;;;;;;19.04;64.11;101464.84;4957369;28;20171;-81
2023/07/13 02:42:25;;;;;;;0.10;0.10;;;;;;;19.00;63.82;101468.59;4959569;28;20510;-82
2023/07/13 02:44:51;;;;;;;0.08;0.08;;;;;;;18.95;63.65;101469.75;4956420;28;20043;-82
2023/07/13 02:47:17;;;;;;;0.10;0.10;;;;;;;18.90;63.99;101467.22;4957458;28;20566;-82
2023/07/13 02:49:44;;;;;;;0.10;0.10;;;;;;;18.85;63.37;101474.63;4951713;28;20049;-82
2023/07/13 02:52:10;;;;;;;0.10;0.10;;;;;;;18.84;63.84;101470.19;4958570;28;20039;-82
2023/07/13 02:54:36;;;;;;;0.00;0.00;;;;;;;18.79;64.01;101473.09;4959383;28;20034;-82
2023/07/13 02:57:03;;;;;;;0.10;0.10;;;;;;;18.80;63.75;101473.97;4960849;29;20020;-82
2023/07/13 02:59:29;;;;;;;0.38;0.38;;;;;;;18.78;63.73;101465.97;4951396;28;20174;-82
2023/07/13 03:01:55;;;;;;;0.10;0.10;;;;;;;18.75;64.15;101475.03;4958545;29;20405;-82
2023/07/13 03:04:21;;;;;;;0.05;0.05;;;;;;;18.76;63.92;101478.59;4954586;28;20444;-82
2023/07/13 03:06:48;;;;;;;1.08;0.60;;;;;;;18.71;64.41;101473.41;4959789;29;20027;-82
2023/07/13 03:09:14;;;;;;;0.00;0.00;;;;;;;18.71;64.33;101476.09;4957070;28;20062;-82
2023/07/13 03:11:40;;;;;;;0.00;0.00;;;;;;;18.68;64.67;101473.56;4942743;28;20494;-82
2023/07/13 03:14:08;;;;;;;0.00;0.00;;;;;;;18.69;64.35;101475.31;4956013;28;20382;-82
2023/07/13 03:16:34;;;;;;;0.05;0.05;;;;;;;18.65;64.12;101473.69;4957187;28;20039;-82
2023/07/13 03:19:00;;;;;;;0.00;0.00;;;;;;;18.64;64.17;101477.34;4957255;28;20028;-82
2023/07/13 03:21:26;;;;;;;0.00;0.00;;;;;;;18.62;64.73;101475.63;4955823;28;20027;-82
2023/07/13 03:23:53;;;;;;;0.10;0.10;;;;;;;18.60;64.95;101473.03;4958158;28;20039;-82
2023/07/13 03:26:20;;;;;;;0.03;0.03;;;;;;;18.59;64.69;101468.59;4958371;28;20483;-82
2023/07/13 03:28:47;;;;;;;0.00;0.00;;;;;;;18.56;64.44;101479.47;4956838;28;20041;-82
2023/07/13 03:31:16;;;;;;;0.10;0.10;;;;;;;18.55;65.65;101483.09;4953097;28;20034;-82
2023/07/13 03:33:43;;;;;;;0.03;0.03;;;;;;;18.53;65.70;101487.63;4954251;28;20536;-82
2023/07/13 03:36:16;;;;;;;0.10;0.10;;;;;;;18.51;65.63;101486.84;4951492;28;20023;-82
2023/07/13 03:38:42;;;;;;;0.03;0.03;;;;;;;18.48;65.49;101481.59;4957000;28;20034;-81
2023/07/13 03:41:08;;;;;;;0.00;0.00;;;;;;;18.47;66.09;101488.78;4956191;28;20034;-82
2023/07/13 03:43:34;;;;;;;0.03;0.03;;;;;;;18.49;66.34;101488.72;4956717;28;20039;-81
2023/07/13 03:46:00;;;;;;;0.10;0.10;;;;;;;18.50;65.54;101485.97;4953333;28;20039;-82
2023/07/13 03:48:27;;;;;;;3.50;1.48;;;;;;;18.49;66.59;101486.03;4952325;28;20118;-82
2023/07/13 03:50:53;;;;;;;0.10;0.10;;;;;;;18.47;67.02;101493.25;4952970;28;20035;-82
2023/07/13 03:53:19;;;;;;;0.05;0.05;;;;;;;18.48;65.87;101490.53;4957656;28;20035;-82
2023/07/13 03:55:45;;;;;;;0.00;0.00;;;;;;;18.45;67.50;101493.34;4955984;28;20035;-82
2023/07/13 03:58:30;;;;;;;0.00;0.00;;;;;;;18.52;66.88;101489.47;4957604;28;20617;-82
2023/07/13 04:00:57;;;;;;;0.13;0.13;;;;;;;18.42;67.00;101494.34;4946203;28;20372;-82
2023/07/13 04:03:24;;;;;;;0.25;0.25;;;;;;;18.45;67.48;101503.22;4949806;28;20073;-82
2023/07/13 04:05:50;;;;;;;0.00;0.00;;;;;;;18.45;67.42;101505.91;4958290;28;20082;-82
2023/07/13 04:08:17;;;;;;;0.08;0.08;;;;;;;18.45;68.01;101508.59;4958985;29;20031;-82
2023/07/13 04:10:43;;;;;;;0.00;0.00;;;;;;;18.43;68.14;101506.84;4958398;29;20059;-82
2023/07/13 04:13:09;;;;;;;0.00;0.00;;;;;;;18.47;67.88;101504.91;4958763;29;20042;-82
2023/07/13 04:15:36;;;;;;;0.10;0.10;;;;;;;18.51;67.83;101508.31;4958574;29;20027;-82
2023/07/13 04:18:03;;;;;;;0.10;0.10;;;;;;;18.52;68.56;101515.44;4956445;28;20031;-82
2023/07/13 04:20:29;;;;;;;0.20;0.20;;;;;;;18.54;67.98;101513.53;4956065;28;20035;-82
2023/07/13 04:22:57;;;;;;;0.13;0.13;;;;;;;18.55;68.74;101510.78;4954828;28;20023;-82
2023/07/13 04:25:23;;;;;;;0.10;0.10;;;;;;;18.56;68.70;101517.03;4954388;28;20019;-81
2023/07/13 04:27:50;;;;;;;0.10;0.10;;;;;;;18.57;67.87;101518.78;4956440;28;20035;-82
2023/07/13 04:30:17;;;;;;;0.05;0.05;;;;;;;18.57;68.69;101518.78;4957461;28;20050;-81
2023/07/13 04:32:43;;;;;;;0.00;0.00;;;;;;;18.61;67.97;101528.44;4951742;28;20031;-82
2023/07/13 04:35:09;;;;;;;0.10;0.10;;;;;;;18.68;68.61;101529.03;4953010;28;20035;-81
2023/07/13 04:37:35;;;;;;;0.20;0.20;;;;;;;18.71;67.94;101523.56;4956311;28;20027;-82
2023/07/13 04:40:03;;;;;;;1.08;0.73;;;;;;;18.75;68.20;101522.47;4949506;28;20035;-81
2023/07/13 04:42:29;;;;;;;0.20;0.20;;;;;;;18.75;68.48;101528.75;4956209;28;20031;-82
2023/07/13 04:44:56;;;;;;;0.10;0.10;;;;;;;18.79;68.67;101534.84;4963583;28;20039;-81
2023/07/13 04:47:22;;;;;;;0.10;0.10;;;;;;;18.81;68.57;101529.41;4972976;28;20035;-80
2023/07/13 04:49:48;;;;;;;0.00;0.00;;;;;;;18.81;69.34;101538.31;4961753;28;20142;-82
2023/07/13 04:52:14;;;;;;;0.00;0.00;;;;;;;18.86;68.75;101540.81;4957917;28;20118;-81
2023/07/13 04:54:40;;;;;;;0.00;0.00;;;;;;;18.88;69.32;101537.13;4957513;28;20031;-82
2023/07/13 04:57:07;;;;;;;0.20;0.20;;;;;;;18.90;68.88;101527.22;4958741;29;20027;-82
2023/07/13 04:59:34;;;;;;;0.03;0.03;;;;;;;18.93;68.94;101534.28;4957017;28;20538;-82
2023/07/13 05:02:01;;;;;;;0.10;0.10;;;;;;;18.93;69.43;101536.97;4956844;28;20109;-82
2023/07/13 05:04:27;;;;;;;0.55;0.55;;;;;;;18.94;69.17;101533.34;4954988;28;20030;-82
2023/07/13 05:06:53;;;;;;;0.10;0.10;;;;;;;18.98;68.33;101534.94;4955345;28;20042;-82
2023/07/13 05:09:19;;;;;;;0.10;0.10;;;;;;;19.02;68.34;101538.34;4958351;29;20098;-82
2023/07/13 05:11:46;;;;;;;0.20;0.20;;;;;;;19.00;67.78;101543.78;4957043;28;20047;-82
2023/07/13 05:14:12;;;;;;;0.10;0.10;;;;;;;19.07;67.95;101544.41;4956705;29;20418;-82
2023/07/13 05:16:38;;;;;;;0.10;0.10;;;;;;;19.09;68.93;101553.25;4954017;28;20108;-81
2023/07/13 05:19:04;;;;;;;0.10;0.10;;;;;;;19.10;68.52;101552.31;4956777;28;20087;-81
2023/07/13 05:21:31;;;;;;;0.10;0.10;;;;;;;19.17;69.17;101552.91;4956785;28;20109;-81
2023/07/13 05:23:57;;;;;;;0.35;0.35;;;;;;;19.25;68.85;101553.44;4963095;28;20039;-81
2023/07/13 05:26:23;;;;;;;0.20;0.20;;;;;;;19.32;68.70;101560.28;4958483;28;20019;-81
2023/07/13 05:28:49;;;;;;;0.57;0.57;;;;;;;19.42;69.08;101562.56;4954311;29;20027;-81
2023/07/13 05:31:15;;;;;;;0.17;0.17;;;;;;;19.33;69.78;101559.34;4952995;28;20023;-81
2023/07/13 05:33:42;;;;;;;0.10;0.10;;;;;;;19.54;69.04;101560.16;4950144;28;20031;-82
2023/07/13 05:36:08;;;;;;;0.47;0.47;;;;;;;19.66;68.68;101564.06;4958728;29;20026;-81
2023/07/13 05:38:34;;;;;;;0.10;0.10;;;;;;;19.81;68.99;101556.25;4958465;29;20054;-82
2023/07/13 05:41:00;;;;;;;0.38;0.38;;;;;;;19.95;68.10;101558.31;4957206;28;20110;-82
2023/07/13 05:43:27;;;;;;;0.10;0.10;;;;;;;20.06;67.57;101555.09;4958335;29;20054;-82
2023/07/13 05:45:54;;;;;;;0.00;0.00;;;;;;;20.07;67.69;101563.09;4954357;28;20035;-82
2023/07/13 05:48:20;;;;;;;0.20;0.20;;;;;;;20.22;67.26;101571.38;4957887;28;20505;-81
2023/07/13 05:50:47;;;;;;;0.10;0.10;;;;;;;20.32;66.69;101578.88;4955880;28;20032;-82
2023/07/13 05:53:14;;;;;;;0.10;0.10;;;;;;;20.36;66.75;101580.50;4950063;29;20091;-82
2023/07/13 05:55:47;;;;;;;0.85;0.73;;;;;;;20.41;66.61;101571.31;4957616;29;20402;-83
2023/07/13 05:58:13;;;;;;;0.17;0.17;;;;;;;20.45;66.54;101570.22;4957848;28;20031;-82
2023/07/13 06:00:40;;;;;;;0.13;0.13;;;;;;;20.48;66.51;101568.25;4955182;28;20078;-82
2023/07/13 06:03:07;;;;;;;0.10;0.10;;;;;;;20.56;66.18;101575.06;4955561;28;20038;-82
2023/07/13 06:05:34;;;;;;;3.00;0.75;;;;;;;20.57;65.96;101588.44;4956509;28;20032;-82
2023/07/13 06:08:00;;;;;;;0.10;0.10;;;;;;;20.63;65.54;101576.50;4950986;28;20043;-81
2023/07/13 06:10:27;;;;;;;0.03;0.03;;;;;;;20.75;65.59;101585.78;4952633;28;20110;-81
2023/07/13 06:12:53;;;;;;;0.20;0.20;;;;;;;20.88;65.42;101584.22;4953859;29;20035;-81
2023/07/13 06:15:19;;;;;;;0.15;0.15;;;;;;;20.82;65.07;101585.44;4951143;28;20063;-82
2023/07/13 06:17:46;;;;;;;1.35;1.00;;;;;;;20.94;65.16;101596.50;4953697;29;20055;-83
2023/07/13 06:20:12;;;;;;;0.00;0.00;;;;;;;20.96;65.96;101592.78;4958968;28;20034;-81
2023/07/13 06:22:38;;;;;;;0.10;0.10;;;;;;;20.82;65.83;101600.69;4955496;28;20487;-81
2023/07/13 06:25:05;;;;;;;0.10;0.10;;;;;;;20.57;62.97;101625.28;4940927;29;20028;-82
2023/07/13 06:27:31;;;;;;;0.08;0.08;;;;;;;20.34;63.10;101614.69;4947784;29;20031;-81
2023/07/13 06:29:57;;;;;;;0.73;0.73;;;;;;;20.12;62.93;101625.59;4957795;28;20474;-79
2023/07/13 06:32:23;;;;;;;0.22;0.22;;;;;;;19.97;63.88;101620.97;4954849;28;20027;-80
2023/07/13 06:34:51;;;;;;;0.05;0.05;;;;;;;19.84;64.10;101626.06;4940697;29;20042;-79
2023/07/13 06:37:18;;;;;;;0.00;0.00;;;;;;;19.80;64.32;101621.72;4953319;28;20019;-80
2023/07/13 06:39:44;;;;;;;0.10;0.10;;;;;;;19.77;65.04;101613.81;4938856;29;20470;-79
2023/07/13 06:42:11;;;;;;;0.10;0.10;;;;;;;19.72;67.70;101624.78;4937063;29;20019;-81
2023/07/13 06:44:37;;;;;;;0.38;0.38;;;;;;;19.71;68.13;101626.59;4953185;28;20055;-79
2023/07/13 06:47:03;;;;;;;0.20;0.20;;;;;;;19.69;68.66;101633.84;4946867;28;20031;-80
2023/07/13 06:49:30;;;;;;;5.25;0.75;;;;;;;19.69;68.41;101625.78;4956638;28;20024;-81
2023/07/13 06:51:56;;;;;;;0.10;0.10;;;;;;;19.76;68.69;101639.81;4970216;28;20095;-80
2023/07/13 06:54:22;;;;;;;0.20;0.20;;;;;;;19.77;67.14;101636.19;4953562;29;20083;-81
2023/07/13 06:56:48;;;;;;;0.10;0.10;;;;;;;19.73;65.59;101634.59;4941174;29;20020;-81
2023/07/13 06:59:15;;;;;;;0.40;0.40;;;;;;;19.68;65.25;101642.84;4939541;29;20036;-80
2023/07/13 07:01:41;;;;;;;0.20;0.20;;;;;;;19.61;65.01;101636.00;4945620;28;20035;-80
2023/07/13 07:04:07;;;;;;;0.00;0.00;;;;;;;19.52;65.74;101629.22;4958683;29;20055;-80
2023/07/13 07:06:33;;;;;;;0.50;0.50;;;;;;;19.53;66.33;101633.66;4959440;29;20051;-80
2023/07/13 07:08:59;;;;;;;0.10;0.10;;;;;;;19.57;66.59;101631.72;4957950;28;20020;-81
2023/07/13 07:11:26;;;;;;;0.10;0.10;;;;;;;19.60;66.69;101634.28;4958456;29;20089;-81
2023/07/13 07:13:53;;;;;;;0.00;0.00;;;;;;;19.63;67.51;101636.81;4957800;29;20032;-80
2023/07/13 07:16:20;;;;;;;0.00;0.00;;;;;;;19.61;67.58;101630.63;4951048;28;20027;-80
2023/07/13 07:18:48;;;;;;;0.10;0.10;;;;;;;19.64;68.22;101635.88;4948912;29;20461;-79
2023/07/13 07:21:14;;;;;;;0.40;0.40;;;;;;;19.70;67.79;101624.84;4958355;28;20027;-81
2023/07/13 07:23:42;;;;;;;0.00;0.00;;;;;;;19.83;68.59;101635.94;4958823;29;20031;-81
2023/07/13 07:26:09;;;;;;;0.32;0.32;;;;;;;19.96;68.56;101640.75;4957209;28;20129;-81
2023/07/13 07:28:36;;;;;;;0.15;0.15;;;;;;;20.03;69.19;101639.50;4959185;29;20121;-81
2023/07/13 07:31:02;;;;;;;0.10;0.10;;;;;;;20.15;68.44;101652.38;4954826;28;20039;-81
2023/07/13 07:33:28;;;;;;;0.17;0.17;;;;;;;20.25;67.81;101651.94;4940085;29;20023;-81
2023/07/13 07:35:55;;;;;;;0.10;0.10;;;;;;;20.34;68.44;101644.28;4940110;29;20035;-81
2023/07/13 07:38:21;;;;;;;0.10;0.10;;;;;;;20.50;68.26;101657.00;4939846;29;20038;-82
2023/07/13 07:40:47;;;;;;;0.00;0.00;;;;;;;20.61;67.79;101646.59;4942669;28;20028;-81
2023/07/13 07:43:13;;;;;;;0.52;0.52;;;;;;;20.77;67.26;101643.16;4953337;29;20061;-81
2023/07/13 07:45:40;;;;;;;0.10;0.10;;;;;;;20.88;67.14;101624.63;4957690;28;20043;-81
2023/07/13 07:48:09;;;;;;;0.30;0.30;;;;;;;20.90;65.74;101633.50;4959348;29;20073;-81
2023/07/13 07:50:36;;;;;;;0.20;0.20;;;;;;;20.76;64.73;101652.16;4958786;28;20031;-80
2023/07/13 07:53:03;;;;;;;0.10;0.10;;;;;;;20.68;65.03;101658.78;4958514;29;20041;-81
2023/07/13 07:55:29;;;;;;;0.10;0.10;;;;;;;20.40;63.32;101661.97;4958377;28;20031;-81
2023/07/13 07:57:57;;;;;;;0.00;0.00;;;;;;;20.24;63.19;101669.91;4957764;29;20026;-80
2023/07/13 08:00:23;;;;;;;0.20;0.20;;;;;;;20.08;63.32;101666.22;4946357;28;20090;-81
2023/07/13 08:02:49;;;;;;;0.10;0.10;;;;;;;19.94;63.63;101669.50;4941536;29;20103;-81
2023/07/13 08:05:15;;;;;;;0.03;0.03;;;;;;;19.79;64.04;101668.38;4946536;29;20502;-79
2023/07/13 08:07:42;;;;;;;0.10;0.10;;;;;;;19.79;64.57;101665.69;4950028;29;20055;-78
2023/07/13 08:10:08;;;;;;;0.10;0.10;;;;;;;19.91;65.03;101665.16;4946366;29;20028;-81
2023/07/13 08:12:36;;;;;;;0.10;0.10;;;;;;;19.88;65.67;101659.94;4945933;29;20027;-80
2023/07/13 08:15:02;;;;;;;0.85;0.85;;;;;;;19.92;66.21;101666.91;4945142;28;20042;-79
2023/07/13 08:17:28;;;;;;;0.10;0.10;;;;;;;19.84;66.27;101666.41;4944474;28;20028;-79
2023/07/13 08:19:55;;;;;;;0.10;0.10;;;;;;;19.75;67.18;101664.09;4944199;29;20027;-81
2023/07/13 08:22:21;;;;;;;0.00;0.00;;;;;;;19.70;67.52;101662.50;4945483;29;20039;-81
2023/07/13 08:24:55;;;;;;;0.00;0.00;;;;;;;19.77;68.45;101667.59;4944870;29;20055;-80
2023/07/13 08:27:23;;;;;;;0.10;0.10;;;;;;;19.82;69.04;101655.66;4945846;29;20032;-80
2023/07/13 08:29:50;;;;;;;0.77;0.77;;;;;;;20.09;69.25;101667.91;4959391;28;20032;-79
2023/07/13 08:32:17;;;;;;;0.20;0.20;;;;;;;20.25;68.63;101668.97;4945063;29;20031;-79
2023/07/13 08:34:44;;;;;;;0.10;0.10;;;;;;;20.34;67.56;101660.44;4952140;28;20046;-80
2023/07/13 08:37:10;;;;;;;0.90;0.90;;;;;;;20.35;66.94;101655.94;4946982;29;20030;-79
2023/07/13 08:39:36;;;;;;;0.00;0.00;;;;;;;20.50;66.88;101657.00;4944615;29;20038;-80
2023/07/13 08:42:25;;;;;;;0.10;0.10;;;;;;;20.69;66.57;101657.84;4946200;29;20413;-80
2023/07/13 08:47:33;;;;;;;0.20;0.20;;;;;;;20.97;63.26;101667.28;5108355;27;20388;-77
2023/07/13 08:50:01;;;;;;;0.10;0.10;;;;;;;21.03;62.95;101659.81;5096623;28;20085;-76
2023/07/13 08:52:34;;;;;;;0.25;0.25;;;;;;;21.05;63.33;101652.50;5076630;28;20025;-76
2023/07/13 08:55:17;;;;;;;0.57;0.57;;;;;;;20.88;62.81;101667.72;5067846;28;20024;-76
2023/07/13 08:57:46;;;;;;;0.32;0.32;;;;;;;20.79;63.43;101669.06;5066621;28;20063;-76
2023/07/13 09:00:15;;;;;;;0.10;0.10;;;;;;;20.57;63.25;101669.19;5067100;28;20051;-76
2023/07/13 09:02:59;;;;;;;0.10;0.10;;;;;;;20.42;63.31;101673.50;5067404;28;20104;-76
2023/07/13 09:16:23;;;;;;;0.20;0.20;;;;;;;19.91;67.62;101692.03;5108399;27;20331;-76
2023/07/13 09:18:53;;;;;;;0.10;0.10;;;;;;;20.00;68.28;101686.25;5088750;28;20082;-76
2023/07/13 09:21:26;;;;;;;0.10;0.10;;;;;;;20.16;68.35;101689.13;5094503;28;20028;-76
2023/07/13 09:24:01;;;;;;;0.10;0.10;;;;;;;20.38;70.19;101685.38;5108287;28;20081;-76
2023/07/13 09:26:32;;;;;;;0.10;0.10;;;;;;;20.68;70.52;101688.41;5095245;28;20032;-76
2023/07/13 09:29:09;;;;;;;0.17;0.17;;;;;;;20.94;70.41;101685.41;5099977;28;20027;-77
2023/07/13 09:31:44;;;;;;;0.20;0.20;;;;;;;21.14;67.84;101681.69;5105723;28;20038;-76
2023/07/13 09:34:12;;;;;;;0.10;0.10;;;;;;;21.05;63.04;101698.31;5101374;28;20024;-77
2023/07/13 09:36:39;;;;;;;0.10;0.10;;;;;;;21.01;62.66;101694.94;5095271;28;20032;-78
2023/07/13 09:39:20;;;;;;;0.10;0.10;;;;;;;20.93;61.96;101707.91;5089071;28;20470;-77
2023/07/13 09:42:09;;;;;;;1.00;0.43;;;;;;;20.69;61.66;101711.69;5091434;28;20025;-76
2023/07/13 09:44:38;;;;;;;0.10;0.10;;;;;;;20.39;62.58;101718.53;5088541;28;20170;-76
2023/07/13 09:47:17;;;;;;;0.13;0.13;;;;;;;20.34;63.19;101716.94;5086413;28;20060;-76
2023/07/13 09:49:44;;;;;;;0.95;0.25;;;;;;;20.12;63.56;101716.22;5086357;28;20017;-76
2023/07/13 09:52:15;;;;;;;0.30;0.30;;;;;;;20.16;62.92;101718.72;5089897;28;20023;-77
2023/07/13 09:54:48;;;;;;;0.15;0.15;;;;;;;20.27;62.33;101720.88;5089686;28;20020;-76
2023/07/13 09:57:17;;;;;;;0.30;0.30;;;;;;;20.24;61.82;101728.22;5091298;28;20150;-76
2023/07/13 09:59:47;;;;;;;0.05;0.05;;;;;;;20.24;61.89;101726.41;5083938;28;20080;-76
2023/07/13 10:02:33;;;;;;;0.95;0.60;;;;;;;20.33;62.18;101730.50;5088011;28;20028;-77
2023/07/13 10:05:04;;;;;;;0.57;0.57;;;;;;;20.30;62.30;101719.84;5088070;28;20021;-75
2023/07/13 10:07:32;;;;;;;0.10;0.10;;;;;;;20.49;62.80;101742.25;5085296;28;20028;-77
2023/07/13 10:10:00;;;;;;;0.17;0.17;;;;;;;20.62;63.59;101729.13;5087060;28;20107;-77
2023/07/13 10:12:29;;;;;;;0.10;0.10;;;;;;;20.86;63.51;101734.28;5084475;28;20028;-77
2023/07/13 10:14:59;;;;;;;0.45;0.45;;;;;;;21.07;62.36;101728.75;5091391;28;20035;-77
2023/07/13 10:17:30;;;;;;;0.17;0.17;;;;;;;21.37;62.77;101722.75;5088106;28;20470;-77
2023/07/13 10:20:04;;;;;;;0.10;0.10;;;;;;;21.54;61.43;101728.13;5086291;28;20497;-77
2023/07/13 10:22:43;;;;;;;0.10;0.10;;;;;;;21.60;60.00;101730.53;5084122;28;20485;-77
2023/07/13 10:25:18;;;;;;;0.40;0.40;;;;;;;21.69;59.54;101717.53;5086480;28;20030;-77
2023/07/13 10:27:45;;;;;;;0.15;0.15;;;;;;;21.72;60.18;101738.94;5063439;28;20039;-76
2023/07/13 10:33:00;;;;;;;0.40;0.40;;;;;;;21.80;58.93;101736.72;5096557;27;20401;-77
2023/07/13 10:35:28;;;;;;;0.10;0.10;;;;;;;21.87;58.00;101737.25;5088571;28;20062;-77
2023/07/13 10:38:06;;;;;;;0.10;0.10;;;;;;;22.11;57.98;101732.38;5087514;28;20040;-77
2023/07/13 10:40:38;;;;;;;0.40;0.40;;;;;;;22.32;58.02;101737.53;5088000;28;20032;-77
2023/07/13 10:43:18;;;;;;;0.05;0.05;;;;;;;22.42;57.10;101736.97;5087269;28;20044;-77
2023/07/13 10:45:49;;;;;;;0.10;0.10;;;;;;;22.59;56.21;101743.25;5088372;28;20024;-77
2023/07/13 10:48:17;;;;;;;0.30;0.30;;;;;;;22.57;55.82;101743.34;5088447;28;20222;-77
2023/07/13 10:50:46;;;;;;;0.10;0.10;;;;;;;22.77;55.31;101749.44;5087221;28;20064;-77
2023/07/13 10:53:29;;;;;;;0.22;0.22;;;;;;;22.81;54.26;101751.00;5091647;28;20096;-78
2023/07/13 10:56:00;;;;;;;0.10;0.10;;;;;;;22.73;54.41;101742.44;5091639;28;20509;-77
2023/07/13 10:58:46;;;;;;;0.10;0.10;;;;;;;22.47;55.48;101752.91;5089636;28;20028;-77
2023/07/13 11:01:16;;;;;;;0.40;0.40;;;;;;;22.10;56.66;101761.16;5083090;28;20082;-76
2023/07/13 11:04:03;;;;;;;0.10;0.10;;;;;;;22.05;57.00;101757.00;5090336;28;20025;-77
2023/07/13 11:09:40;;;;;;;0.10;0.10;;;;;;;22.16;55.78;101742.88;5058787;28;20396;-78
2023/07/13 11:12:26;;;;;;;0.10;0.10;;;;;;;22.27;53.60;101751.28;5033136;28;20438;-76
2023/07/13 11:20:23;;;;;;;0.30;0.30;;;;;;;22.80;50.47;101756.50;5087262;28;20324;-76
2023/07/13 11:23:10;;;;;;;0.10;0.10;;;;;;;22.86;50.00;101743.50;5078903;28;20090;-77
2023/07/13 11:25:38;;;;;;;0.10;0.10;;;;;;;23.03;50.72;101747.94;5076298;28;20107;-77
2023/07/13 11:30:47;;;;;;;0.10;0.10;;;;;;;23.21;49.29;101748.69;5111704;27;20925;-77
2023/07/13 11:38:34;;;;;;;0.30;0.30;;;;;;;23.34;48.68;101754.25;5089882;27;20385;-76
2023/07/13 11:41:07;;;;;;;0.20;0.20;;;;;;;23.56;49.09;101753.84;5089578;28;20036;-77
2023/07/13 11:43:33;;;;;;;0.20;0.20;;;;;;;23.62;47.62;101746.31;5069698;28;20446;-77
2023/07/13 11:46:14;;;;;;;0.10;0.10;;;;;;;23.78;46.76;101757.94;5071176;28;20032;-78
2023/07/13 11:48:41;;;;;;;0.10;0.10;;;;;;;23.79;48.04;101759.69;5072581;28;20465;-78
2023/07/13 11:51:15;;;;;;;0.00;0.00;;;;;;;23.78;45.21;101768.75;5071282;28;20021;-78
2023/07/13 11:53:48;;;;;;;0.00;0.00;;;;;;;23.74;45.21;101759.97;5072395;28;20048;-78
2023/07/13 11:56:15;;;;;;;0.00;0.00;;;;;;;23.85;45.91;101770.13;5072980;28;20020;-78
2023/07/13 11:58:41;;;;;;;0.10;0.10;;;;;;;23.77;45.40;101771.56;5066252;28;20043;-75
2023/07/13 12:01:18;;;;;;;0.03;0.03;;;;;;;23.99;45.42;101773.81;5059031;28;20115;-76
2023/07/13 12:03:46;;;;;;;0.63;0.63;;;;;;;24.02;44.93;101763.69;5070339;28;20398;-77
2023/07/13 12:06:34;;;;;;;0.10;0.10;;;;;;;24.25;45.34;101765.91;5071098;28;20023;-78
2023/07/13 12:09:03;;;;;;;1.00;0.85;;;;;;;24.23;45.29;101760.59;5070478;28;20036;-78